Time;durP1;ratioP1;P1;durP2;ratioP2;P2;SDS_P1;SDS_P2;PMS_P1;PMS_P2;Temp;Humidity;BMP_temperature;BMP_pressure;BME280_temperature;BME280_humidity;BME280_pressure;Samples;Min_cycle;Max_cycle;Signal;HPM_P1;HPM_P2
2022/05/12 00:00:16;;;;;;;;;3.33;2.00;;;;;19.65;100.00;101407.16;4970686;28;46741;-73
2022/05/12 00:02:41;;;;;;;;;5.00;0.67;;;;;19.57;100.00;101410.81;4975752;28;45341;-71
2022/05/12 00:05:07;;;;;;;;;9.67;2.67;;;;;19.54;100.00;101409.97;4977410;28;45352;-71
2022/05/12 00:07:33;;;;;;;;;4.33;1.67;;;;;19.49;100.00;101409.16;4973727;28;45591;-71
2022/05/12 00:09:58;;;;;;;;;5.00;3.33;;;;;19.41;100.00;101409.31;4974633;28;45543;-72
2022/05/12 00:12:23;;;;;;;;;6.33;3.00;;;;;19.38;100.00;101402.19;4977730;28;59001;-71
2022/05/12 00:14:49;;;;;;;;;7.00;2.67;;;;;19.33;100.00;101398.72;4977339;28;45224;-73
2022/05/12 00:17:15;;;;;;;;;6.00;2.00;;;;;19.34;100.00;101413.88;4974189;28;45520;-71
2022/05/12 00:19:40;;;;;;;;;8.67;4.33;;;;;19.37;100.00;101416.50;4974492;28;46386;-72
2022/05/12 00:22:05;;;;;;;;;3.33;3.33;;;;;19.38;100.00;101428.97;4971833;28;45357;-72
2022/05/12 00:24:31;;;;;;;;;7.67;3.00;;;;;19.41;100.00;101433.41;4974791;28;45318;-71
2022/05/12 00:26:57;;;;;;;;;4.00;4.00;;;;;19.44;100.00;101424.44;4978868;28;51568;-73
2022/05/12 00:29:22;;;;;;;;;6.67;3.67;;;;;19.44;100.00;101416.41;4978790;28;45368;-71
2022/05/12 00:31:48;;;;;;;;;12.33;5.67;;;;;19.49;100.00;101430.59;4975907;28;45332;-71
2022/05/12 00:34:16;;;;;;;;;6.00;3.00;;;;;19.38;100.00;101428.97;4973825;28;45382;-72
2022/05/12 00:36:41;;;;;;;;;5.00;2.33;;;;;19.39;100.00;101443.28;4974046;28;45566;-71
2022/05/12 00:39:07;;;;;;;;;6.67;2.67;;;;;19.31;100.00;101442.50;4975706;28;45669;-72
2022/05/12 00:41:33;;;;;;;;;11.00;5.33;;;;;19.30;100.00;101446.97;4977282;28;45362;-71
2022/05/12 00:44:02;;;;;;;;;6.00;4.00;;;;;19.26;100.00;101445.25;4978234;28;45519;-71
2022/05/12 00:46:31;;;;;;;;;6.33;3.67;;;;;19.25;100.00;101459.53;4978996;28;45467;-71
2022/05/12 00:49:05;;;;;;;;;8.33;4.00;;;;;19.21;100.00;101452.44;4977537;28;45835;-70
2022/05/12 00:51:48;;;;;;;;;9.67;5.67;;;;;19.18;100.00;101455.19;4976488;28;45578;-72
2022/05/12 00:54:22;;;;;;;;;3.67;0.33;;;;;19.18;100.00;101465.91;4977686;28;45287;-71
2022/05/12 00:56:49;;;;;;;;;3.67;2.67;;;;;19.07;100.00;101458.03;4977553;28;44870;-71
2022/05/12 00:59:22;;;;;;;;;4.67;3.67;;;;;19.06;100.00;101471.41;4977264;28;45856;-72
2022/05/12 01:01:48;;;;;;;;;7.00;3.33;;;;;19.00;100.00;101466.13;4970937;28;45571;-73
2022/05/12 01:04:14;;;;;;;;;8.33;5.00;;;;;18.92;100.00;101463.59;4977275;28;45427;-72
2022/05/12 01:06:39;;;;;;;;;7.00;3.33;;;;;18.90;100.00;101477.88;4976839;28;45566;-71
2022/05/12 01:09:05;;;;;;;;;8.00;4.33;;;;;18.75;100.00;101471.84;4974166;28;46029;-71
2022/05/12 01:11:30;;;;;;;;;7.33;6.00;;;;;18.72;100.00;101487.03;4974563;28;45484;-71
2022/05/12 01:13:59;;;;;;;;;6.67;5.33;;;;;18.62;100.00;101488.88;4976317;28;45420;-71
2022/05/12 01:16:35;;;;;;;;;8.00;5.67;;;;;18.54;100.00;101477.41;4974886;28;45605;-72
2022/05/12 01:19:00;;;;;;;;;7.67;7.67;;;;;18.47;100.00;101484.59;4972266;28;46415;-72
2022/05/12 01:21:25;;;;;;;;;12.33;8.00;;;;;18.43;100.00;101484.63;4976846;28;48745;-72
2022/05/12 01:23:51;;;;;;;;;9.33;7.67;;;;;18.44;100.00;101481.97;4977885;28;53885;-71
2022/05/12 01:26:17;;;;;;;;;9.67;8.00;;;;;18.45;100.00;101491.75;4973998;28;45439;-72
2022/05/12 01:28:43;;;;;;;;;8.00;7.00;;;;;18.46;100.00;101492.63;4971112;28;46470;-72
2022/05/12 01:31:15;;;;;;;;;11.33;7.67;;;;;18.45;100.00;101497.09;4977055;28;45568;-73
2022/05/12 01:33:40;;;;;;;;;8.33;6.00;;;;;18.41;100.00;101487.34;4977702;28;45479;-71
2022/05/12 01:36:06;;;;;;;;;7.00;7.00;;;;;18.41;100.00;101481.09;4975935;28;54609;-71
2022/05/12 01:38:31;;;;;;;;;6.00;3.67;;;;;18.45;100.00;101497.09;4972000;28;58696;-72
2022/05/12 01:40:56;;;;;;;;;6.00;6.00;;;;;18.43;100.00;101492.66;4977555;28;45362;-72
2022/05/12 01:43:22;;;;;;;;;5.67;5.67;;;;;18.39;100.00;101489.16;4967023;28;45837;-71
2022/05/12 01:45:47;;;;;;;;;10.00;6.67;;;;;18.41;100.00;101507.84;4977258;28;51891;-71
2022/05/12 01:48:14;;;;;;;;;10.33;6.33;;;;;18.41;100.00;101505.16;4972740;28;45481;-71
2022/05/12 01:50:41;;;;;;;;;5.67;5.00;;;;;18.38;100.00;101502.56;4975503;28;45224;-71
2022/05/12 01:53:09;;;;;;;;;7.00;5.00;;;;;18.37;100.00;101508.78;4971495;28;45498;-71
2022/05/12 01:55:35;;;;;;;;;7.33;4.00;;;;;18.36;100.00;101523.06;4973514;28;45574;-72
2022/05/12 01:58:01;;;;;;;;;3.00;3.00;;;;;18.40;100.00;101523.00;4974036;28;45492;-71
2022/05/12 02:00:28;;;;;;;;;5.00;2.00;;;;;18.42;100.00;101518.50;4977370;28;45527;-72
2022/05/12 02:02:54;;;;;;;;;3.67;3.00;;;;;18.41;100.00;101524.78;4976884;28;45536;-71
2022/05/12 02:05:19;;;;;;;;;5.33;2.00;;;;;18.40;100.00;101527.47;4976639;28;45516;-70
2022/05/12 02:07:47;;;;;;;;;5.33;2.00;;;;;18.37;100.00;101530.16;4970239;28;46390;-71
2022/05/12 02:10:20;;;;;;;;;4.00;3.00;;;;;18.33;100.00;101527.53;4973954;28;45507;-71
2022/05/12 02:12:45;;;;;;;;;1.33;1.00;;;;;18.31;100.00;101532.00;4969901;28;45493;-71
2022/05/12 02:15:11;;;;;;;;;2.00;2.00;;;;;18.26;100.00;101533.81;4976000;28;45460;-72
2022/05/12 02:17:37;;;;;;;;;1.00;1.00;;;;;18.23;100.00;101541.00;4976399;28;46513;-71
2022/05/12 02:20:03;;;;;;;;;3.00;1.67;;;;;18.20;100.00;101535.69;4977079;28;45377;-72
2022/05/12 02:22:28;;;;;;;;;3.00;3.00;;;;;18.21;100.00;101545.47;4972934;28;45486;-71
2022/05/12 02:24:54;;;;;;;;;2.00;1.00;;;;;18.20;100.00;101546.38;4974230;28;53813;-71
2022/05/12 02:27:20;;;;;;;;;3.00;1.33;;;;;18.16;100.00;101550.84;4973206;28;46602;-71
2022/05/12 02:29:45;;;;;;;;;3.00;2.00;;;;;18.08;100.00;101546.47;4972827;28;46147;-71
2022/05/12 02:32:11;;;;;;;;;3.00;1.00;;;;;18.12;100.00;101558.94;4970536;28;47105;-73
2022/05/12 02:34:36;;;;;;;;;3.00;1.00;;;;;18.07;100.00;101561.63;4977427;28;45310;-72
2022/05/12 02:37:03;;;;;;;;;1.00;1.00;;;;;18.00;100.00;101547.44;4975687;28;48772;-71
2022/05/12 02:39:37;;;;;;;;;3.00;2.00;;;;;18.02;100.00;101552.78;4969964;28;45313;-71
2022/05/12 02:42:04;;;;;;;;;3.00;1.00;;;;;18.03;100.00;101558.09;4975474;28;45426;-72
2022/05/12 02:44:30;;;;;;;;;5.00;1.67;;;;;18.03;100.00;101568.78;4976609;28;45301;-72
2022/05/12 02:46:55;;;;;;;;;1.00;1.00;;;;;17.97;100.00;101573.28;4975538;28;45753;-71
2022/05/12 02:49:21;;;;;;;;;2.00;2.00;;;;;17.91;100.00;101571.56;4975651;28;45158;-73
2022/05/12 02:51:47;;;;;;;;;1.33;1.33;;;;;17.90;100.00;101574.25;4975834;28;54934;-73
2022/05/12 02:54:14;;;;;;;;;3.00;1.67;;;;;17.89;100.00;101575.13;4966947;28;45545;-71
2022/05/12 02:56:39;;;;;;;;;3.00;1.67;;;;;17.87;100.00;101574.25;4970573;28;45371;-72
2022/05/12 02:59:06;;;;;;;;;2.00;1.00;;;;;17.82;100.00;101574.28;4975253;28;45416;-72
2022/05/12 03:01:31;;;;;;;;;2.00;2.00;;;;;17.85;100.00;101584.09;4967865;28;45322;-73
2022/05/12 03:03:57;;;;;;;;;3.00;2.00;;;;;17.86;100.00;101578.72;4974609;28;45521;-71
2022/05/12 03:06:22;;;;;;;;;2.00;2.00;;;;;17.90;100.00;101591.16;4975487;28;46618;-71
2022/05/12 03:08:47;;;;;;;;;5.00;2.00;;;;;17.89;100.00;101589.38;4971808;28;55329;-71
2022/05/12 03:11:13;;;;;;;;;5.00;3.00;;;;;17.91;100.00;101602.75;4972992;28;52883;-70
2022/05/12 03:13:38;;;;;;;;;7.00;3.00;;;;;17.88;100.00;101600.97;4975947;28;45318;-73
2022/05/12 03:16:04;;;;;;;;;3.00;2.33;;;;;17.87;100.00;101600.97;4972977;28;46439;-72
2022/05/12 03:18:29;;;;;;;;;2.67;2.00;;;;;17.85;100.00;101602.78;4975781;28;60213;-71
2022/05/12 03:20:55;;;;;;;;;5.00;1.67;;;;;17.82;100.00;101600.13;4975105;28;45396;-71
2022/05/12 03:23:22;;;;;;;;;3.67;2.00;;;;;17.77;100.00;101592.13;4975739;28;51504;-72
2022/05/12 03:25:48;;;;;;;;;6.33;2.00;;;;;17.64;100.00;101591.31;4973175;28;45687;-71
2022/05/12 03:28:14;;;;;;;;;1.00;1.00;;;;;17.62;100.00;101598.41;4975395;28;45487;-71
2022/05/12 03:30:41;;;;;;;;;2.00;1.00;;;;;17.60;100.00;101600.22;4976122;28;45493;-70
2022/05/12 03:33:07;;;;;;;;;1.00;0.33;;;;;17.57;100.00;101591.31;4972896;28;45281;-72
2022/05/12 03:35:33;;;;;;;;;3.00;1.67;;;;;17.49;100.00;101594.06;4972863;28;47365;-72
2022/05/12 03:37:58;;;;;;;;;4.00;2.00;;;;;17.40;100.00;101591.41;4971125;28;45211;-71
2022/05/12 03:40:24;;;;;;;;;1.00;1.00;;;;;17.34;100.00;101592.34;4970958;28;45650;-71
2022/05/12 03:42:50;;;;;;;;;1.67;1.00;;;;;17.26;100.00;101589.72;4979243;28;45655;-72
2022/05/12 03:45:15;;;;;;;;;3.00;2.00;;;;;17.12;100.00;101594.22;4979622;28;46828;-71
2022/05/12 03:47:48;;;;;;;;;7.33;2.00;;;;;17.05;100.00;101588.91;4976068;28;45497;-71
2022/05/12 03:50:16;;;;;;;;;5.00;2.00;;;;;16.94;100.00;101595.19;4973325;28;45163;-71
2022/05/12 03:52:42;;;;;;;;;4.00;1.00;;;;;16.87;100.00;101585.41;4973653;28;45595;-71
2022/05/12 03:55:11;;;;;;;;;5.00;2.00;;;;;16.77;100.00;101588.97;4978833;28;60943;-72
2022/05/12 03:57:37;;;;;;;;;3.33;2.00;;;;;16.74;100.00;101587.22;4970679;28;45536;-71
2022/05/12 04:00:06;;;;;;;;;3.00;2.00;;;;;16.69;100.00;101590.75;4976518;28;45488;-72
2022/05/12 04:02:32;;;;;;;;;6.00;3.00;;;;;16.63;100.00;101593.44;4978843;28;45626;-70
2022/05/12 04:04:58;;;;;;;;;3.33;2.00;;;;;16.61;100.00;101605.88;4979285;28;45796;-71
2022/05/12 04:07:23;;;;;;;;;5.67;2.00;;;;;16.54;100.00;101602.31;4975286;28;53669;-70
2022/05/12 04:09:49;;;;;;;;;6.33;2.67;;;;;16.50;100.00;101611.22;4970658;28;45710;-72
2022/05/12 04:12:15;;;;;;;;;2.00;2.00;;;;;16.51;100.00;101615.63;4976734;28;45484;-71
2022/05/12 04:14:41;;;;;;;;;4.33;2.00;;;;;16.47;100.00;101619.22;4971365;28;45771;-72
2022/05/12 04:17:08;;;;;;;;;5.67;1.67;;;;;16.46;100.00;101607.69;4976273;28;45416;-71
2022/05/12 04:19:34;;;;;;;;;4.00;2.00;;;;;16.44;100.00;101617.44;4976699;28;45463;-71
2022/05/12 04:21:59;;;;;;;;;2.00;2.00;;;;;16.44;100.00;101621.88;4975069;28;45555;-71
2022/05/12 04:24:24;;;;;;;;;2.67;2.67;;;;;16.42;100.00;101618.34;4976456;28;60247;-72
2022/05/12 04:26:50;;;;;;;;;5.33;2.33;;;;;16.43;100.00;101626.31;4978720;28;55624;-71
2022/05/12 04:29:16;;;;;;;;;6.67;3.00;;;;;16.40;100.00;101620.09;4971564;28;45492;-71
2022/05/12 04:31:42;;;;;;;;;2.67;2.67;;;;;16.42;100.00;101634.34;4976067;28;49436;-72
2022/05/12 04:36:52;;;;;;;;;5.00;3.33;;;;;16.38;100.00;101635.22;4969793;28;45555;-71
2022/05/12 04:39:18;;;;;;;;;2.00;2.00;;;;;16.32;100.00;101635.22;4975047;28;45330;-71
2022/05/12 04:41:44;;;;;;;;;6.33;3.33;;;;;16.29;100.00;101641.41;4970898;28;45525;-71
2022/05/12 04:44:10;;;;;;;;;8.33;3.67;;;;;16.29;100.00;101645.88;4978611;28;45565;-70
2022/05/12 04:46:37;;;;;;;;;6.33;3.33;;;;;16.26;100.00;101645.88;4977436;28;45575;-70
2022/05/12 04:49:03;;;;;;;;;9.00;3.00;;;;;16.26;100.00;101649.44;4974610;28;45409;-71
2022/05/12 04:51:29;;;;;;;;;5.67;3.00;;;;;16.14;100.00;101647.66;4976109;28;45526;-71
2022/05/12 04:53:55;;;;;;;;;5.67;3.00;;;;;16.14;100.00;101663.63;4978403;28;45483;-70
2022/05/12 04:56:20;;;;;;;;;4.67;2.00;;;;;16.11;100.00;101647.63;4974914;28;45561;-71
2022/05/12 04:58:46;;;;;;;;;3.67;3.00;;;;;16.11;100.00;101652.97;4978209;28;45242;-72
2022/05/12 05:01:11;;;;;;;;;3.33;1.67;;;;;16.04;100.00;101652.97;4973937;28;45355;-71
2022/05/12 05:03:36;;;;;;;;;7.00;2.00;;;;;16.04;100.00;101653.84;4973051;28;46247;-72
2022/05/12 05:06:02;;;;;;;;;4.00;3.00;;;;;15.99;100.00;101652.94;4976037;28;59116;-72
2022/05/12 05:08:28;;;;;;;;;3.00;3.00;;;;;16.01;100.00;101658.28;4973472;28;45393;-71
2022/05/12 05:10:54;;;;;;;;;6.00;5.00;;;;;15.96;100.00;101652.94;4977893;28;45397;-71
2022/05/12 05:13:21;;;;;;;;;10.00;3.33;;;;;16.00;100.00;101661.84;4971769;28;46210;-71
2022/05/12 05:15:47;;;;;;;;;6.33;3.33;;;;;15.98;100.00;101656.50;4972952;28;45287;-72
2022/05/12 05:18:15;;;;;;;;;4.00;3.00;;;;;16.01;100.00;101664.50;4979272;28;45419;-71
2022/05/12 05:20:41;;;;;;;;;4.67;2.00;;;;;16.02;100.00;101662.72;4960142;28;45504;-70
2022/05/12 05:23:07;;;;;;;;;5.00;3.00;;;;;15.93;100.00;101667.16;4966682;28;47739;-71
2022/05/12 05:25:32;;;;;;;;;4.67;1.67;;;;;15.91;100.00;101668.91;4977683;28;45488;-70
2022/05/12 05:27:58;;;;;;;;;3.00;3.00;;;;;15.90;100.00;101684.88;5082478;22;45385;-71
2022/05/12 05:30:25;;;;;;;;;7.00;3.00;;;;;15.91;100.00;101686.66;4928636;28;45683;-70
2022/05/12 05:32:50;;;;;;;;;7.33;3.00;;;;;15.89;100.00;101684.00;4934229;28;47307;-69
2022/05/12 05:35:16;;;;;;;;;4.00;2.33;;;;;15.87;100.00;101676.88;4930342;28;45557;-70
2022/05/12 05:37:43;;;;;;;;;3.33;3.00;;;;;15.87;100.00;101692.84;4938487;28;45432;-71
2022/05/12 05:40:12;;;;;;;;;6.67;3.00;;;;;15.80;100.00;101670.66;4936562;28;45984;-70
2022/05/12 05:42:38;;;;;;;;;5.67;3.00;;;;;15.81;100.00;101680.41;4932170;28;45652;-71
2022/05/12 05:45:10;;;;;;;;;2.00;2.00;;;;;15.94;100.00;101697.34;4938420;28;45479;-71
2022/05/12 05:47:39;;;;;;;;;8.00;4.00;;;;;15.96;100.00;101703.53;4931562;28;45414;-73
2022/05/12 05:50:08;;;;;;;;;4.33;3.00;;;;;16.03;100.00;101710.66;4936362;28;45531;-72
2022/05/12 05:55:18;;;;;;;;;3.33;2.67;;;;;16.26;100.00;101709.84;4938445;28;45349;-72
2022/05/12 05:57:43;;;;;;;;;3.00;3.00;;;;;16.37;100.00;101718.72;4934541;28;45554;-73
2022/05/12 06:00:12;;;;;;;;;9.33;3.00;;;;;16.43;100.00;101722.28;4931322;28;45638;-72
2022/05/12 06:02:38;;;;;;;;;5.00;3.67;;;;;16.50;100.00;101740.06;4929530;28;47374;-72
2022/05/12 06:05:04;;;;;;;;;2.00;2.00;;;;;16.53;100.00;101735.63;4937921;28;45492;-73
2022/05/12 06:07:29;;;;;;;;;5.33;3.33;;;;;16.58;100.00;101739.19;4937362;28;45364;-73
2022/05/12 06:09:55;;;;;;;;;2.67;2.67;;;;;16.63;100.00;101737.44;4936149;28;45616;-72
2022/05/12 06:12:20;;;;;;;;;5.67;3.00;;;;;16.66;100.00;101738.28;4934682;28;50174;-72
2022/05/12 06:14:46;;;;;;;;;4.00;3.00;;;;;16.66;100.00;101748.06;4934442;28;62192;-69
2022/05/12 06:17:11;;;;;;;;;4.67;4.67;;;;;16.57;100.00;101748.09;4938698;28;45405;-72
2022/05/12 06:19:37;;;;;;;;;4.00;4.00;;;;;16.52;100.00;101749.88;4937380;28;56050;-70
2022/05/12 06:22:03;;;;;;;;;3.00;3.00;;;;;16.50;100.00;101753.38;4937837;28;58146;-70
2022/05/12 06:24:28;;;;;;;;;5.00;4.00;;;;;16.47;100.00;101752.53;4932465;28;46380;-70
2022/05/12 06:26:54;;;;;;;;;6.67;3.00;;;;;16.44;100.00;101755.16;4935171;28;45775;-69
2022/05/12 06:29:20;;;;;;;;;7.00;4.00;;;;;16.43;100.00;101759.59;4932841;28;45566;-69
2022/05/12 06:31:47;;;;;;;;;6.33;3.00;;;;;16.46;100.00;101756.06;4936250;28;46371;-70
2022/05/12 06:34:12;;;;;;;;;7.00;3.67;;;;;16.47;100.00;101757.84;4937040;28;45859;-69
2022/05/12 06:36:38;;;;;;;;;6.00;5.00;;;;;16.48;100.00;101763.19;4938656;28;45378;-70
2022/05/12 06:39:03;;;;;;;;;9.00;4.00;;;;;16.46;100.00;101759.63;4931825;28;45892;-70
2022/05/12 06:41:29;;;;;;;;;8.33;4.00;;;;;16.45;100.00;101759.59;4936086;28;45610;-70
2022/05/12 06:43:55;;;;;;;;;5.33;3.67;;;;;16.49;100.00;101777.38;4933210;28;45585;-70
2022/05/12 06:46:21;;;;;;;;;12.33;4.00;;;;;16.47;100.00;101773.84;4925989;28;45452;-70
2022/05/12 06:48:49;;;;;;;;;7.33;4.00;;;;;16.52;100.00;101780.06;4931996;28;45711;-70
2022/05/12 06:51:15;;;;;;;;;6.00;3.00;;;;;16.53;100.00;101778.28;4934041;28;47838;-71
2022/05/12 06:53:41;;;;;;;;;5.00;3.00;;;;;16.52;100.00;101772.09;4935716;28;45301;-72
2022/05/12 06:56:07;;;;;;;;;4.00;2.33;;;;;16.54;100.00;101764.06;4935883;28;45433;-71
2022/05/12 06:58:33;;;;;;;;;10.00;7.00;;;;;16.56;100.00;101771.16;4934041;28;45507;-71
2022/05/12 07:01:00;;;;;;;;;8.00;6.00;;;;;16.62;100.00;101770.28;4934075;28;45640;-69
2022/05/12 07:03:25;;;;;;;;;5.67;5.00;;;;;16.71;100.00;101771.22;4935580;28;45344;-70
2022/05/12 07:05:51;;;;;;;;;5.67;5.67;;;;;16.74;100.00;101773.03;4932698;28;45480;-70
2022/05/12 07:08:17;;;;;;;;;12.00;4.00;;;;;16.78;100.00;101772.16;4934671;28;45628;-70
2022/05/12 07:10:42;;;;;;;;;8.00;4.00;;;;;16.87;100.00;101773.91;4927350;28;45857;-70
2022/05/12 07:13:08;;;;;;;;;5.00;3.33;;;;;16.90;100.00;101766.81;4933383;28;47923;-71
2022/05/12 07:15:33;;;;;;;;;7.33;3.67;;;;;16.99;100.00;101781.91;4928735;28;57258;-69
2022/05/12 07:17:59;;;;;;;;;4.00;4.00;;;;;17.03;100.00;101781.91;4927695;28;45607;-69
2022/05/12 07:28:39;;;;;;;;;6.67;4.00;;;;;17.01;100.00;101767.69;4929635;28;45480;-72
2022/05/12 07:31:07;;;;;;;;;9.67;6.00;;;;;17.09;100.00;101773.00;4934649;28;45733;-70
2022/05/12 07:33:35;;;;;;;;;9.00;3.00;;;;;17.11;100.00;101765.00;4930842;28;45444;-73
2022/05/12 07:36:03;;;;;;;;;2.00;2.00;;;;;17.16;100.00;101764.13;4935930;28;45576;-71
2022/05/12 07:38:28;;;;;;;;;4.67;2.33;;;;;17.17;100.00;101763.22;4934923;28;45588;-71
2022/05/12 07:40:54;;;;;;;;;5.00;3.00;;;;;17.22;100.00;101763.22;4931409;28;46588;-72
2022/05/12 07:43:20;;;;;;;;;6.00;2.33;;;;;17.32;100.00;101775.66;4932938;28;46344;-71
2022/05/12 07:45:46;;;;;;;;;5.67;4.00;;;;;17.33;100.00;101768.53;4929940;28;45621;-72
2022/05/12 07:48:12;;;;;;;;;7.33;4.00;;;;;17.41;100.00;101769.41;4929607;28;45451;-71
2022/05/12 07:50:39;;;;;;;;;5.00;2.00;;;;;17.45;100.00;101782.75;4930648;28;46548;-72
2022/05/12 07:53:05;;;;;;;;;4.67;3.67;;;;;17.46;100.00;101772.94;4935998;28;45174;-72
2022/05/12 07:55:32;;;;;;;;;3.00;3.00;;;;;17.46;100.00;101773.84;4930851;28;45375;-71
2022/05/12 07:58:01;;;;;;;;;2.00;2.00;;;;;17.52;100.00;101772.94;4933123;28;45333;-72
2022/05/12 08:00:28;;;;;;;;;5.33;2.00;;;;;17.56;100.00;101774.69;4930841;28;46404;-71
2022/05/12 08:02:54;;;;;;;;;5.00;4.00;;;;;17.54;100.00;101773.84;4923508;28;45460;-71
2022/05/12 08:05:19;;;;;;;;;7.00;4.33;;;;;17.61;100.00;101775.56;4933598;28;56211;-71
2022/05/12 08:07:47;;;;;;;;;5.00;2.00;;;;;17.61;100.00;101780.03;4934504;28;52632;-70
2022/05/12 08:10:13;;;;;;;;;4.00;2.33;;;;;17.62;100.00;101776.47;4930818;28;46585;-71
2022/05/12 08:12:38;;;;;;;;;5.33;2.67;;;;;17.68;100.00;101777.31;4932493;28;45341;-72
2022/05/12 08:15:05;;;;;;;;;2.00;2.00;;;;;17.67;100.00;101782.69;4927119;28;47265;-72
2022/05/12 08:17:30;;;;;;;;;4.33;3.00;;;;;17.71;100.00;101787.13;4932688;28;45600;-71
2022/05/12 08:19:56;;;;;;;;;10.33;4.00;;;;;17.69;100.00;101776.47;4928268;28;46244;-71
2022/05/12 08:22:21;;;;;;;;;4.33;1.33;;;;;17.74;100.00;101784.50;4931247;28;51710;-70
2022/05/12 08:24:46;;;;;;;;;3.67;2.67;;;;;17.76;100.00;101780.91;4934791;28;45631;-71
2022/05/12 08:27:13;;;;;;;;;1.00;1.00;;;;;17.82;100.00;101795.16;4938899;28;45472;-70
2022/05/12 08:29:40;;;;;;;;;3.33;2.33;;;;;17.82;100.00;101781.78;4937537;28;46617;-70
2022/05/12 08:32:06;;;;;;;;;14.00;6.00;;;;;17.82;99.80;101774.66;4934839;28;45550;-71
2022/05/12 08:34:31;;;;;;;;;3.00;1.67;;;;;17.95;100.00;101780.81;4933242;28;47807;-70
2022/05/12 08:36:57;;;;;;;;;3.00;1.00;;;;;18.03;99.80;101790.59;4933931;28;47493;-70
2022/05/12 08:39:22;;;;;;;;;4.00;2.00;;;;;18.05;100.00;101793.25;4934538;28;53461;-69
2022/05/12 08:42:11;;;;;;;;;3.00;2.00;;;;;18.12;100.00;101795.03;4934205;28;58541;-69
2022/05/12 08:44:39;;;;;;;;;0.33;0.00;;;;;18.15;98.71;101786.97;4937453;28;45382;-69
2022/05/12 08:47:09;;;;;;;;;1.00;1.00;;;;;18.22;100.00;101790.53;4936924;28;45362;-70
2022/05/12 08:49:45;;;;;;;;;1.00;1.00;;;;;18.28;98.88;101787.81;4928562;28;46036;-70
2022/05/12 08:52:16;;;;;;;;;3.67;2.00;;;;;18.29;97.62;101781.56;4934226;28;45471;-70
2022/05/12 08:55:09;;;;;;;;;4.00;2.33;;;;;18.38;99.67;101788.66;4934531;28;45690;-70
2022/05/12 08:57:58;;;;;;;;;3.33;2.00;;;;;18.44;99.94;101783.28;4934418;28;45436;-70
2022/05/12 09:00:26;;;;;;;;;3.33;3.33;;;;;18.49;99.34;101781.47;4926482;28;46392;-70
2022/05/12 09:03:09;;;;;;;;;4.00;1.33;;;;;18.55;99.42;101779.63;4935663;28;45424;-70
2022/05/12 09:05:50;;;;;;;;;3.00;1.33;;;;;18.61;99.51;101765.31;4935620;28;45627;-70
2022/05/12 09:08:27;;;;;;;;;2.33;1.00;;;;;18.71;97.54;101766.16;4932802;28;45455;-69
2022/05/12 09:10:55;;;;;;;;;6.00;1.33;;;;;18.81;98.17;101768.75;4936129;28;46457;-70
2022/05/12 09:13:25;;;;;;;;;1.33;0.33;;;;;18.86;97.70;101771.41;4936725;28;45449;-70
2022/05/12 09:16:03;;;;;;;;;3.67;2.00;;;;;18.86;95.87;101768.72;4936257;28;45563;-69
2022/05/12 09:18:33;;;;;;;;;1.00;1.00;;;;;18.83;96.66;101776.78;4933898;28;45636;-69
2022/05/12 09:21:07;;;;;;;;;1.33;1.33;;;;;18.90;96.83;101777.59;4931456;28;47344;-71
2022/05/12 09:23:33;;;;;;;;;7.00;2.00;;;;;18.98;94.21;101778.44;4935877;28;45572;-71
2022/05/12 09:25:59;;;;;;;;;3.67;1.33;;;;;19.07;95.83;101773.00;4929095;28;45583;-70
2022/05/12 09:28:27;;;;;;;;;4.00;1.67;;;;;19.19;95.25;101777.34;4932935;28;45548;-70
2022/05/12 09:30:55;;;;;;;;;2.00;1.67;;;;;19.32;94.46;101769.16;4927647;28;46614;-70
2022/05/12 09:33:29;;;;;;;;;3.67;1.00;;;;;19.46;91.26;101773.50;4936798;28;46447;-70
2022/05/12 09:36:00;;;;;;;;;2.33;1.67;;;;;19.57;91.74;101766.25;4937444;28;45513;-70
2022/05/12 09:38:27;;;;;;;;;1.00;1.00;;;;;19.66;91.47;101767.97;4934636;28;47339;-71
2022/05/12 09:40:54;;;;;;;;;1.67;1.33;;;;;19.67;90.99;101765.28;4931969;28;47694;-71
2022/05/12 09:43:26;;;;;;;;;4.00;2.00;;;;;19.71;89.09;101768.78;4936492;28;45499;-70
2022/05/12 09:46:04;;;;;;;;;4.67;2.67;;;;;19.75;91.55;101766.06;4933088;28;45551;-70
2022/05/12 09:48:32;;;;;;;;;1.00;1.00;;;;;19.86;91.66;101766.81;4933371;28;45562;-71
2022/05/12 09:51:16;;;;;;;;;3.00;1.67;;;;;20.01;91.78;101762.16;4935190;28;47621;-71
2022/05/12 09:53:42;;;;;;;;;5.00;1.67;;;;;20.12;88.19;101757.53;4930716;28;45689;-72
2022/05/12 09:56:11;;;;;;;;;2.00;2.00;;;;;20.15;88.78;101749.47;4929459;28;57889;-71
2022/05/12 09:58:39;;;;;;;;;4.67;1.00;;;;;20.20;86.65;101769.06;4936024;28;45544;-71
2022/05/12 10:01:10;;;;;;;;;2.00;1.00;;;;;20.24;87.80;101765.44;4935880;28;46485;-71
2022/05/12 10:09:25;;;;;;;;;3.67;1.67;;;;;20.49;84.48;101746.31;4928120;28;45599;-72
2022/05/12 10:12:02;;;;;;;;;2.00;2.00;;;;;20.59;86.10;101746.13;4933675;28;45675;-72
2022/05/12 10:14:46;;;;;;;;;1.00;1.00;;;;;20.73;85.53;101751.31;4931337;28;45708;-72
2022/05/12 10:17:33;;;;;;;;;3.67;2.00;;;;;20.85;85.93;101734.97;4933570;28;45460;-72
2022/05/12 10:20:08;;;;;;;;;2.00;2.00;;;;;20.96;84.92;101740.16;4922887;28;45671;-72
2022/05/12 10:22:40;;;;;;;;;2.33;1.00;;;;;21.02;84.55;101732.00;4931434;28;46682;-72
2022/05/12 10:25:39;;;;;;;;;1.33;1.33;;;;;21.10;84.18;101730.06;4945018;28;45552;-73
2022/05/12 10:28:12;;;;;;;;;2.00;1.00;;;;;21.14;84.19;101729.06;4925728;28;45377;-73
2022/05/12 10:30:53;;;;;;;;;5.00;1.00;;;;;21.21;81.73;101729.88;4934509;28;45468;-72
2022/05/12 10:33:31;;;;;;;;;2.00;1.00;;;;;21.27;82.25;101732.44;4933374;28;45511;-73
2022/05/12 10:36:12;;;;;;;;;2.67;1.00;;;;;21.38;83.27;101734.94;4933487;28;45500;-73
2022/05/12 10:39:13;;;;;;;;;2.33;1.00;;;;;21.47;82.60;101736.59;4935571;28;45495;-72
2022/05/12 10:42:06;;;;;;;;;4.67;1.00;;;;;21.50;82.58;101729.34;4923915;28;47284;-72
2022/05/12 10:45:02;;;;;;;;;1.67;1.67;;;;;21.61;83.01;101739.88;4918070;28;46287;-73
2022/05/12 10:47:54;;;;;;;;;3.00;3.00;;;;;21.65;82.13;101729.03;4930664;28;45458;-73
2022/05/12 10:50:44;;;;;;;;;2.33;1.33;;;;;21.65;79.69;101730.81;4932264;28;45700;-73
2022/05/12 10:53:28;;;;;;;;;3.00;1.00;;;;;21.64;79.86;101731.75;4931241;28;46783;-72
2022/05/12 10:56:11;;;;;;;;;2.00;2.00;;;;;21.61;81.17;101726.41;4932249;28;45845;-73
2022/05/12 10:58:46;;;;;;;;;2.67;2.67;;;;;21.70;80.42;101723.56;4928134;28;45566;-73
2022/05/12 11:01:19;;;;;;;;;3.00;1.33;;;;;21.79;79.00;101719.81;4933603;28;47198;-73
2022/05/12 11:03:48;;;;;;;;;2.00;2.00;;;;;21.84;79.68;101721.47;4930804;28;45773;-70
2022/05/12 11:06:17;;;;;;;;;1.00;1.00;;;;;21.85;79.48;101725.03;4933357;28;46420;-72
2022/05/12 11:08:46;;;;;;;;;3.33;1.00;;;;;21.89;79.05;101727.63;4935545;28;46725;-72
2022/05/12 11:11:15;;;;;;;;;3.67;2.00;;;;;21.96;78.91;101721.19;4933785;28;45615;-72
2022/05/12 11:14:18;;;;;;;;;3.00;1.67;;;;;22.01;78.14;101722.91;4934350;28;45977;-71
2022/05/12 11:17:00;;;;;;;;;3.00;1.00;;;;;21.96;78.08;101723.88;4932598;28;45544;-72
2022/05/12 11:19:26;;;;;;;;;3.33;1.00;;;;;21.90;76.97;101726.72;4933252;28;46673;-73
2022/05/12 11:22:03;;;;;;;;;1.00;1.00;;;;;21.98;77.88;101719.34;4932367;28;45601;-72
2022/05/12 11:24:34;;;;;;;;;3.33;1.33;;;;;22.04;78.59;101720.13;4930064;28;45605;-72
2022/05/12 11:27:09;;;;;;;;;3.00;1.00;;;;;22.08;74.50;101733.47;4934116;28;46548;-71
2022/05/12 11:29:53;;;;;;;;;4.00;2.00;;;;;22.17;77.09;101718.97;4936208;28;45440;-72
2022/05/12 11:33:02;;;;;;;;;2.00;2.00;;;;;22.28;76.51;101721.41;4946846;28;45634;-71
2022/05/12 11:35:31;;;;;;;;;3.67;2.33;;;;;22.53;76.05;101727.09;4915448;28;46320;-71
2022/05/12 11:38:01;;;;;;;;;3.33;1.00;;;;;22.70;76.11;101719.50;4923109;28;47395;-71
2022/05/12 11:40:48;;;;;;;;;1.00;1.00;;;;;22.87;76.29;101719.94;4926498;28;45733;-73
2022/05/12 11:46:15;;;;;;;;;2.33;1.33;;;;;22.83;72.45;101720.06;4932972;28;45432;-72
2022/05/12 11:48:55;;;;;;;;;2.00;0.67;;;;;22.79;74.41;101716.53;4928186;28;46407;-73